Time;durP1;ratioP1;P1;durP2;ratioP2;P2;SDS_P1;SDS_P2;PMS_P1;PMS_P2;Temp;Humidity;BMP_temperature;BMP_pressure;BME280_temperature;BME280_humidity;BME280_pressure;Samples;Min_cycle;Max_cycle;Signal;HPM_P1;HPM_P2
2023/09/13 00:02:26;;;;;;;;;;;;;;;24.60;47.50;100946.91;7396064;19;1710;-37
2023/09/13 00:04:56;;;;;;;;;;;;;;;24.52;47.19;100931.53;7394707;19;1710;-38
2023/09/13 00:07:25;;;;;;;;;;;;;;;24.58;47.15;100941.66;7395496;19;1674;-54
2023/09/13 00:09:53;;;;;;;;;;;;;;;24.55;47.45;100942.03;7394381;19;1845;-37
2023/09/13 00:12:21;;;;;;;;;;;;;;;24.52;47.30;100945.03;7394545;19;1699;-37
2023/09/13 00:14:50;;;;;;;;;;;;;;;24.52;47.28;100953.16;7394847;19;1662;-37
2023/09/13 00:17:23;;;;;;;;;;;;;;;24.55;47.31;100942.03;7394896;19;1675;-37
2023/09/13 00:19:52;;;;;;;;;;;;;;;24.55;47.63;100958.25;7380161;19;1634;-37
2023/09/13 00:22:20;;;;;;;;;;;;;;;24.56;47.33;100948.28;7394832;19;1552;-37
2023/09/13 00:24:46;;;;;;;;;;;;;;;24.02;47.50;100849.53;7395959;19;1671;-37
2023/09/13 00:27:14;;;;;;;;;;;;;;;24.54;47.51;100943.03;7394526;19;1560;-37
2023/09/13 00:29:42;;;;;;;;;;;;;;;24.54;47.49;100937.63;7395963;19;1967;-38
2023/09/13 00:32:11;;;;;;;;;;;;;;;24.55;47.46;100939.31;7393727;19;1857;-37
2023/09/13 00:34:42;;;;;;;;;;;;;;;24.57;47.54;100945.41;7395043;19;1643;-37
2023/09/13 00:37:10;;;;;;;;;;;;;;;24.54;47.25;100932.22;7393791;19;1530;-38
2023/09/13 00:39:38;;;;;;;;;;;;;;;24.49;47.50;100941.78;7394817;19;1592;-37
2023/09/13 00:42:07;;;;;;;;;;;;;;;24.51;47.46;100946.06;7393239;19;1630;-37
2023/09/13 00:44:35;;;;;;;;;;;;;;;24.48;47.29;100940.13;7393818;19;1620;-37
2023/09/13 00:47:04;;;;;;;;;;;;;;;24.51;47.54;100950.63;7394857;19;1651;-37
2023/09/13 00:49:32;;;;;;;;;;;;;;;24.48;47.46;100940.97;7395830;19;1468;-37
2023/09/13 00:52:03;;;;;;;;;;;;;;;24.51;47.55;100947.91;7394069;19;1853;-37
2023/09/13 00:54:31;;;;;;;;;;;;;;;24.46;47.48;100943.00;7392250;19;2045;-37
2023/09/13 00:57:00;;;;;;;;;;;;;;;24.50;47.47;100941.66;7392769;19;1954;-37
2023/09/13 00:59:28;;;;;;;;;;;;;;;24.50;47.65;100933.56;7392810;19;1687;-37
2023/09/13 01:01:57;;;;;;;;;;;;;;;24.52;47.59;100952.31;7392744;19;1849;-37
2023/09/13 01:04:25;;;;;;;;;;;;;;;24.47;47.63;100952.81;7398793;19;1553;-37
2023/09/13 01:06:53;;;;;;;;;;;;;;;24.49;47.61;100939.09;7400704;19;1564;-37
2023/09/13 01:09:24;;;;;;;;;;;;;;;24.47;47.51;100938.41;7401195;19;1746;-37
2023/09/13 01:11:53;;;;;;;;;;;;;;;24.51;47.35;100939.81;7397548;19;1855;-37
2023/09/13 01:14:21;;;;;;;;;;;;;;;24.51;47.45;100942.50;7400861;19;1485;-37
2023/09/13 01:16:53;;;;;;;;;;;;;;;24.46;47.49;100948.41;7402880;19;1571;-37
2023/09/13 01:19:35;;;;;;;;;;;;;;;24.45;47.60;100949.38;7386851;19;1556;-37
2023/09/13 01:22:10;;;;;;;;;;;;;;;24.50;47.41;100948.91;7402349;19;1548;-37
2023/09/13 01:24:53;;;;;;;;;;;;;;;24.52;47.31;100938.81;7401509;19;1717;-37
2023/09/13 01:27:31;;;;;;;;;;;;;;;24.45;47.43;100956.66;7401504;19;2487;-37
2023/09/13 01:30:03;;;;;;;;;;;;;;;24.48;47.13;100943.66;7401637;19;1640;-37
2023/09/13 01:32:32;;;;;;;;;;;;;;;24.42;47.31;100938.94;7398749;19;1838;-37
2023/09/13 01:35:00;;;;;;;;;;;;;;;24.42;47.57;100952.44;7400845;19;1640;-37
2023/09/13 01:37:28;;;;;;;;;;;;;;;24.43;47.48;100951.41;7399182;19;1726;-37
2023/09/13 01:39:57;;;;;;;;;;;;;;;24.42;47.53;100957.84;7400253;19;1731;-37
2023/09/13 01:42:26;;;;;;;;;;;;;;;24.45;47.34;100957.50;7399705;19;1786;-37
2023/09/13 01:44:55;;;;;;;;;;;;;;;24.41;47.47;100945.34;7400109;19;1547;-37
2023/09/13 01:47:25;;;;;;;;;;;;;;;24.44;47.28;100952.28;7399737;19;1730;-37
2023/09/13 01:49:54;;;;;;;;;;;;;;;24.43;47.05;100948.72;7400375;19;1456;-37
2023/09/13 01:52:23;;;;;;;;;;;;;;;24.38;47.27;100953.78;7397345;19;1847;-37
2023/09/13 01:54:51;;;;;;;;;;;;;;;24.33;47.51;100942.63;7400356;19;1585;-37
2023/09/13 01:57:19;;;;;;;;;;;;;;;24.32;47.64;100946.34;7396340;19;2520;-37
2023/09/13 01:59:47;;;;;;;;;;;;;;;24.39;47.41;100958.16;7399269;19;1662;-37
2023/09/13 02:02:16;;;;;;;;;;;;;;;24.37;47.67;100955.66;7400689;19;1603;-37
2023/09/13 02:04:47;;;;;;;;;;;;;;;24.42;47.27;100955.16;7399204;19;1920;-37
2023/09/13 02:07:16;;;;;;;;;;;;;;;24.32;47.39;100949.91;7399204;19;1703;-37
2023/09/13 02:09:44;;;;;;;;;;;;;;;24.29;47.64;100943.97;7397736;19;1774;-37
2023/09/13 02:12:13;;;;;;;;;;;;;;;24.32;47.36;100951.75;7397118;19;1861;-37
2023/09/13 02:14:41;;;;;;;;;;;;;;;24.30;47.39;100942.97;7396440;19;1573;-37
2023/09/13 02:17:10;;;;;;;;;;;;;;;24.27;47.66;100954.09;7398712;19;1622;-37
2023/09/13 02:19:38;;;;;;;;;;;;;;;24.30;47.47;100948.38;7383736;19;1673;-37
2023/09/13 02:22:09;;;;;;;;;;;;;;;24.28;47.58;100942.28;7399731;19;1548;-37
2023/09/13 02:24:38;;;;;;;;;;;;;;;24.20;47.62;100941.25;7400015;19;1670;-37
2023/09/13 02:27:06;;;;;;;;;;;;;;;24.21;47.67;100961.88;7398220;19;1811;-37
2023/09/13 02:29:35;;;;;;;;;;;;;;;24.21;47.43;100955.59;7398929;19;1851;-37
2023/09/13 02:32:03;;;;;;;;;;;;;;;24.13;47.54;100953.75;7398054;19;1858;-37
2023/09/13 02:34:32;;;;;;;;;;;;;;;24.17;47.51;100963.22;7398025;19;1672;-37
2023/09/13 02:37:00;;;;;;;;;;;;;;;23.60;47.79;100861.22;7397514;19;1438;-37
2023/09/13 02:39:35;;;;;;;;;;;;;;;24.15;47.73;100951.72;7397406;19;1700;-37
2023/09/13 02:42:03;;;;;;;;;;;;;;;24.12;47.61;100952.03;7398406;19;1530;-37
2023/09/13 02:44:32;;;;;;;;;;;;;;;24.10;47.65;100942.44;7396730;19;1531;-37
2023/09/13 02:47:01;;;;;;;;;;;;;;;24.07;47.60;100948.16;7393803;19;1369;-37
2023/09/13 02:49:29;;;;;;;;;;;;;;;24.07;47.76;100948.97;7398952;19;1548;-37
2023/09/13 02:51:57;;;;;;;;;;;;;;;23.97;47.65;100949.16;7396601;19;1837;-37
2023/09/13 02:54:26;;;;;;;;;;;;;;;24.01;47.89;100963.16;7396934;19;1734;-38
2023/09/13 02:56:57;;;;;;;;;;;;;;;24.06;47.26;100947.31;7396757;19;1541;-37
2023/09/13 02:59:25;;;;;;;;;;;;;;;23.99;47.64;100957.06;7395580;19;1464;-37
2023/09/13 03:01:53;;;;;;;;;;;;;;;23.91;47.73;100959.75;7397951;19;1404;-37
2023/09/13 03:04:22;;;;;;;;;;;;;;;23.95;47.74;100969.22;7394852;19;1995;-37
2023/09/13 03:06:50;;;;;;;;;;;;;;;23.85;47.81;100955.00;7397366;19;1480;-37
2023/09/13 03:09:18;;;;;;;;;;;;;;;23.90;47.84;100968.88;7395690;19;1757;-37
2023/09/13 03:11:46;;;;;;;;;;;;;;;23.87;47.83;100969.19;7393993;19;1835;-37
2023/09/13 03:14:17;;;;;;;;;;;;;;;23.92;47.67;100977.66;7396041;19;1466;-37
2023/09/13 03:16:46;;;;;;;;;;;;;;;23.92;47.59;100977.66;7397635;19;1382;-38
2023/09/13 03:19:14;;;;;;;;;;;;;;;23.91;47.61;100986.75;7380671;19;1571;-37
2023/09/13 03:21:44;;;;;;;;;;;;;;;23.90;47.69;100982.38;7394704;19;1811;-37
2023/09/13 03:24:13;;;;;;;;;;;;;;;23.84;47.73;100981.16;7395673;19;1487;-37
2023/09/13 03:26:41;;;;;;;;;;;;;;;23.85;47.50;100987.41;7396064;19;1783;-37
2023/09/13 03:29:09;;;;;;;;;;;;;;;23.80;47.57;100986.03;7397328;19;1569;-37
2023/09/13 03:31:40;;;;;;;;;;;;;;;23.81;47.39;100978.78;7398141;19;1914;-37
2023/09/13 03:34:08;;;;;;;;;;;;;;;23.81;47.49;100982.34;7394838;19;1891;-38
2023/09/13 03:36:37;;;;;;;;;;;;;;;23.81;47.46;100981.47;7396758;19;1650;-37
2023/09/13 03:39:05;;;;;;;;;;;;;;;23.73;47.60;100984.94;7396653;19;1579;-37
2023/09/13 03:41:34;;;;;;;;;;;;;;;23.69;47.48;100972.78;7397474;19;1953;-37
2023/09/13 03:44:03;;;;;;;;;;;;;;;23.65;47.62;100984.91;7397869;19;1513;-37
2023/09/13 03:46:31;;;;;;;;;;;;;;;23.73;47.54;100979.53;7393789;19;1809;-37
2023/09/13 03:49:02;;;;;;;;;;;;;;;23.69;47.49;100988.13;7395589;19;1624;-37
2023/09/13 03:51:30;;;;;;;;;;;;;;;23.75;47.78;100982.09;7395611;19;1862;-37
2023/09/13 03:53:59;;;;;;;;;;;;;;;23.81;47.48;100984.19;7394541;19;1927;-37
2023/09/13 03:56:27;;;;;;;;;;;;;;;23.73;47.47;100974.16;7396368;19;1678;-37
2023/09/13 03:58:56;;;;;;;;;;;;;;;23.72;47.47;100987.84;7396534;19;1899;-37
2023/09/13 04:01:24;;;;;;;;;;;;;;;23.75;47.46;100987.50;7394288;19;1758;-37
2023/09/13 04:03:52;;;;;;;;;;;;;;;23.71;47.40;100996.94;7394923;19;1600;-37
2023/09/13 04:06:26;;;;;;;;;;;;;;;23.70;47.20;101006.88;7391665;19;1491;-37
2023/09/13 04:08:55;;;;;;;;;;;;;;;23.60;47.58;101006.16;7394891;19;1596;-37
2023/09/13 04:11:23;;;;;;;;;;;;;;;23.72;47.47;101002.16;7392831;19;1841;-37
2023/09/13 04:13:51;;;;;;;;;;;;;;;23.77;47.46;101013.34;7395197;19;1958;-37
2023/09/13 04:16:19;;;;;;;;;;;;;;;23.73;47.39;101006.56;7394696;19;1599;-37
2023/09/13 04:18:48;;;;;;;;;;;;;;;23.74;47.24;101010.13;7396021;19;1868;-37
2023/09/13 04:21:16;;;;;;;;;;;;;;;23.89;47.22;101005.81;7380133;19;1634;-37
2023/09/13 04:23:47;;;;;;;;;;;;;;;23.86;47.20;100995.34;7393995;19;1416;-37
2023/09/13 04:26:21;;;;;;;;;;;;;;;23.76;47.52;100998.13;7393453;19;1389;-37
2023/09/13 04:28:49;;;;;;;;;;;;;;;23.75;47.64;101004.53;7394763;19;1538;-37
2023/09/13 04:31:17;;;;;;;;;;;;;;;23.83;47.73;101001.06;7392248;19;1857;-38
2023/09/13 04:33:50;;;;;;;;;;;;;;;23.73;48.40;101008.41;7391131;19;1454;-37
2023/09/13 04:36:18;;;;;;;;;;;;;;;23.79;48.00;101016.72;7395772;19;1456;-37
2023/09/13 04:38:49;;;;;;;;;;;;;;;23.75;47.69;101015.34;7392521;19;1265;-37
2023/09/13 04:41:18;;;;;;;;;;;;;;;23.61;47.44;101034.84;7394021;19;1196;-38
2023/09/13 04:43:46;;;;;;;;;;;;;;;23.55;47.21;101030.06;7393783;19;1610;-37
2023/09/13 04:46:14;;;;;;;;;;;;;;;23.52;47.06;101033.13;7390856;19;1578;-37
2023/09/13 04:48:42;;;;;;;;;;;;;;;23.56;46.98;101018.28;7390967;19;1396;-37
2023/09/13 04:51:12;;;;;;;;;;;;;;;23.68;46.54;101017.00;7391667;19;1874;-37
2023/09/13 04:53:40;;;;;;;;;;;;;;;23.76;46.14;101011.63;7389128;19;1845;-37
2023/09/13 04:56:11;;;;;;;;;;;;;;;23.78;46.34;101014.22;7392768;19;1681;-37
2023/09/13 04:58:40;;;;;;;;;;;;;;;23.66;46.70;101019.03;7390840;19;1815;-37
2023/09/13 05:01:08;;;;;;;;;;;;;;;23.70;46.64;101011.44;7391041;19;1536;-37
2023/09/13 05:03:37;;;;;;;;;;;;;;;23.69;46.48;101007.88;7391119;19;1372;-37
2023/09/13 05:06:05;;;;;;;;;;;;;;;23.77;46.44;101007.94;7393201;19;1573;-37
2023/09/13 05:08:33;;;;;;;;;;;;;;;23.74;46.44;101005.56;7392688;19;1573;-40
2023/09/13 05:11:02;;;;;;;;;;;;;;;23.84;46.46;101004.63;7392395;19;1600;-40
2023/09/13 05:13:33;;;;;;;;;;;;;;;23.91;46.45;101005.66;7390604;19;1861;-40
2023/09/13 05:16:02;;;;;;;;;;;;;;;23.91;46.26;101016.47;7393259;19;1853;-40
2023/09/13 05:18:30;;;;;;;;;;;;;;;23.87;46.47;101001.59;7391799;19;1451;-40
2023/09/13 05:20:59;;;;;;;;;;;;;;;24.03;46.50;101015.16;7376396;19;1479;-40
2023/09/13 05:23:27;;;;;;;;;;;;;;;24.10;46.25;101008.09;7394760;19;1621;-40
2023/09/13 05:25:55;;;;;;;;;;;;;;;24.26;46.08;101018.13;7394492;19;1322;-40
2023/09/13 05:28:24;;;;;;;;;;;;;;;24.29;45.97;101006.13;7393027;19;1485;-40
2023/09/13 05:30:55;;;;;;;;;;;;;;;24.42;45.77;101009.22;7391876;19;1400;-40
2023/09/13 05:33:23;;;;;;;;;;;;;;;24.47;45.90;101012.28;7392720;19;1861;-40
2023/09/13 05:35:52;;;;;;;;;;;;;;;24.38;46.15;100999.75;7394420;19;1516;-40
2023/09/13 05:38:20;;;;;;;;;;;;;;;24.21;46.53;101010.50;7394262;19;1514;-40
2023/09/13 05:40:48;;;;;;;;;;;;;;;24.47;46.11;101009.56;7394217;19;1869;-40
2023/09/13 05:43:16;;;;;;;;;;;;;;;24.35;46.56;101005.47;7392812;19;1402;-40
2023/09/13 05:45:45;;;;;;;;;;;;;;;24.31;46.98;101007.69;7393865;19;1495;-40
2023/09/13 05:48:16;;;;;;;;;;;;;;;24.36;46.68;101013.41;7392129;19;1537;-40
2023/09/13 05:50:44;;;;;;;;;;;;;;;24.45;46.80;101011.56;7399297;19;1349;-40
2023/09/13 05:53:13;;;;;;;;;;;;;;;24.33;46.91;100996.69;7398668;19;1849;-40
2023/09/13 05:55:41;;;;;;;;;;;;;;;24.21;47.28;101004.25;7399785;19;1827;-40
2023/09/13 05:58:11;;;;;;;;;;;;;;;24.28;47.53;101017.97;7398788;19;1406;-45
2023/09/13 06:00:39;;;;;;;;;;;;;;;24.16;47.70;101007.44;7400692;19;1809;-40
2023/09/13 06:03:07;;;;;;;;;;;;;;;24.18;47.71;101004.59;7401008;19;1624;-40
2023/09/13 06:05:38;;;;;;;;;;;;;;;24.24;47.67;101001.22;7400767;19;1524;-40
2023/09/13 06:08:07;;;;;;;;;;;;;;;24.20;47.78;101006.09;7399519;19;1495;-40
2023/09/13 06:10:35;;;;;;;;;;;;;;;24.17;47.99;101014.56;7400325;19;1821;-40
2023/09/13 06:13:04;;;;;;;;;;;;;;;24.26;47.79;101012.72;7397468;19;1842;-40
2023/09/13 06:15:32;;;;;;;;;;;;;;;24.14;48.34;101014.88;7399954;19;1557;-40
2023/09/13 06:18:00;;;;;;;;;;;;;;;24.14;48.33;101008.63;7399153;19;1504;-41
2023/09/13 06:20:28;;;;;;;;;;;;;;;24.16;48.34;101018.25;7384228;19;1431;-40
2023/09/13 06:22:59;;;;;;;;;;;;;;;24.21;48.52;101010.50;7398492;19;1570;-40
2023/09/13 06:25:28;;;;;;;;;;;;;;;24.27;48.45;101009.00;7398662;19;1575;-40
2023/09/13 06:27:56;;;;;;;;;;;;;;;24.30;48.23;101013.25;7398338;19;1455;-40
2023/09/13 06:30:24;;;;;;;;;;;;;;;24.38;48.14;101018.66;7399778;19;1533;-40
2023/09/13 06:32:53;;;;;;;;;;;;;;;24.15;48.85;101016.56;7399605;19;1837;-40
2023/09/13 06:35:22;;;;;;;;;;;;;;;24.29;48.58;101030.44;7399426;19;1810;-40
2023/09/13 06:37:50;;;;;;;;;;;;;;;24.39;48.73;101028.44;7399100;19;1877;-40
2023/09/13 06:40:21;;;;;;;;;;;;;;;24.32;49.09;101033.69;7398277;19;1545;-40
2023/09/13 06:42:49;;;;;;;;;;;;;;;24.32;49.12;101027.44;7398320;19;1475;-40
2023/09/13 06:45:18;;;;;;;;;;;;;;;24.22;48.96;101016.75;7400184;19;1596;-39
2023/09/13 06:47:46;;;;;;;;;;;;;;;24.48;48.73;101027.47;7398429;19;1551;-40
2023/09/13 06:50:14;;;;;;;;;;;;;;;24.51;48.89;101032.59;7399277;19;1736;-40
2023/09/13 06:52:43;;;;;;;;;;;;;;;24.41;48.75;101021.03;7398240;19;1865;-40
2023/09/13 06:55:11;;;;;;;;;;;;;;;24.42;49.26;101028.97;7399917;19;1831;-40
2023/09/13 06:57:42;;;;;;;;;;;;;;;24.48;49.06;101024.75;7396765;19;1611;-40
2023/09/13 07:00:11;;;;;;;;;;;;;;;24.50;48.79;101017.38;7398663;19;1589;-40
2023/09/13 07:02:39;;;;;;;;;;;;;;;24.64;49.10;101017.75;7398793;19;1563;-40
2023/09/13 07:05:07;;;;;;;;;;;;;;;24.67;48.74;101020.09;7399571;19;1747;-40
2023/09/13 07:07:36;;;;;;;;;;;;;;;24.76;50.71;101024.50;7398447;19;1595;-40
2023/09/13 07:10:05;;;;;;;;;;;;;;;24.78;48.81;101022.47;7396931;19;1538;-40
2023/09/13 07:12:35;;;;;;;;;;;;;;;24.86;48.19;101022.47;7397629;19;1849;-40
2023/09/13 07:15:07;;;;;;;;;;;;;;;24.99;49.36;101022.84;7397407;19;1625;-40
2023/09/13 07:17:35;;;;;;;;;;;;;;;25.04;48.82;101013.38;7397668;19;1518;-40
2023/09/13 07:20:05;;;;;;;;;;;;;;;25.08;50.08;100998.47;7382779;19;1769;-38
2023/09/13 07:22:33;;;;;;;;;;;;;;;25.17;49.27;100990.19;7396932;19;1538;-37
2023/09/13 07:25:01;;;;;;;;;;;;;;;25.16;48.85;100998.47;7398566;19;1824;-37
2023/09/13 07:27:29;;;;;;;;;;;;;;;25.16;48.77;101012.00;7397511;19;1478;-37
2023/09/13 07:29:58;;;;;;;;;;;;;;;25.18;48.19;101007.25;7398808;19;1776;-37
2023/09/13 07:32:29;;;;;;;;;;;;;;;25.15;49.75;100994.09;7396817;19;1838;-37
2023/09/13 07:34:57;;;;;;;;;;;;;;;25.10;50.02;100999.16;7390655;19;1378;-37
2023/09/13 07:37:27;;;;;;;;;;;;;;;25.06;50.85;101005.91;7388258;19;1811;-38
2023/09/13 07:39:56;;;;;;;;;;;;;;;24.90;54.20;100998.66;7392663;19;2435;-38
2023/09/13 07:42:25;;;;;;;;;;;;;;;24.79;54.07;101002.56;7393477;19;1447;-38
2023/09/13 07:44:54;;;;;;;;;;;;;;;24.76;54.26;100995.59;7392124;19;2796;-38
2023/09/13 07:47:22;;;;;;;;;;;;;;;24.76;54.04;101000.16;7389782;19;1768;-37
2023/09/13 07:49:53;;;;;;;;;;;;;;;24.75;53.74;100991.22;7393695;19;1756;-37
2023/09/13 07:52:21;;;;;;;;;;;;;;;24.75;53.99;100983.09;7392437;19;1807;-37
2023/09/13 07:54:49;;;;;;;;;;;;;;;24.78;53.82;100985.44;7391225;19;1831;-37
2023/09/13 07:57:17;;;;;;;;;;;;;;;24.79;54.22;100984.44;7391690;19;1598;-38
2023/09/13 07:59:46;;;;;;;;;;;;;;;24.80;54.10;100991.53;7392054;19;1741;-38
2023/09/13 08:02:14;;;;;;;;;;;;;;;24.83;54.26;101003.91;7392610;19;1255;-38
2023/09/13 08:04:42;;;;;;;;;;;;;;;24.79;54.05;100999.84;7388398;19;1634;-37
2023/09/13 08:07:13;;;;;;;;;;;;;;;24.78;53.97;101001.69;7386964;19;1671;-37
2023/09/13 08:09:41;;;;;;;;;;;;;;;24.80;53.67;101001.53;7389925;19;1906;-37
2023/09/13 08:12:10;;;;;;;;;;;;;;;24.82;53.93;100988.66;7389591;19;1478;-38
2023/09/13 08:14:38;;;;;;;;;;;;;;;24.80;53.83;100988.00;7389175;19;1891;-41
2023/09/13 08:17:07;;;;;;;;;;;;;;;24.81;53.55;100978.88;7390271;19;1521;-38
2023/09/13 08:19:35;;;;;;;;;;;;;;;24.79;53.37;100964.69;7391054;19;1558;-38
2023/09/13 08:22:04;;;;;;;;;;;;;;;24.81;53.49;100973.47;7378656;19;1118;-37
2023/09/13 08:24:35;;;;;;;;;;;;;;;24.79;53.22;100972.78;7390037;19;1880;-37
2023/09/13 08:27:03;;;;;;;;;;;;;;;24.83;53.20;100979.56;7390214;19;1677;-37
2023/09/13 08:29:31;;;;;;;;;;;;;;;24.83;53.22;100976.84;7389736;19;1926;-37
2023/09/13 08:32:00;;;;;;;;;;;;;;;24.84;53.16;100983.94;7389373;19;1680;-37
2023/09/13 08:34:28;;;;;;;;;;;;;;;24.86;52.88;100970.25;7387753;19;1893;-37
2023/09/13 08:36:57;;;;;;;;;;;;;;;24.87;52.88;100978.19;7389522;19;1566;-38
2023/09/13 08:39:25;;;;;;;;;;;;;;;24.86;52.85;100971.09;7386584;19;1744;-37
2023/09/13 08:41:58;;;;;;;;;;;;;;;24.87;52.87;100964.69;7387430;19;1741;-37
2023/09/13 08:44:27;;;;;;;;;;;;;;;24.88;52.71;100969.06;7391215;19;1740;-37
2023/09/13 08:46:56;;;;;;;;;;;;;;;24.87;52.71;100958.41;7388249;19;1744;-37
2023/09/13 08:49:25;;;;;;;;;;;;;;;24.86;52.61;100949.44;7387102;19;1590;-37
2023/09/13 08:51:54;;;;;;;;;;;;;;;24.86;52.73;100949.44;7389859;19;1617;-37
2023/09/13 08:54:23;;;;;;;;;;;;;;;24.89;52.73;100950.97;7389626;19;1859;-37
2023/09/13 08:56:52;;;;;;;;;;;;;;;24.85;52.55;100941.50;7392531;19;1806;-37
2023/09/13 08:59:23;;;;;;;;;;;;;;;24.90;52.29;100950.78;7380767;19;1379;-37
2023/09/13 09:01:52;;;;;;;;;;;;;;;24.92;52.29;100956.03;7386778;19;1423;-38
2023/09/13 09:04:20;;;;;;;;;;;;;;;24.90;52.43;100945.38;7390220;19;1836;-37
2023/09/13 09:06:49;;;;;;;;;;;;;;;24.93;52.42;100947.75;7390228;19;1772;-37
2023/09/13 09:09:20;;;;;;;;;;;;;;;24.92;52.32;100946.06;7389711;19;1732;-37
2023/09/13 09:11:52;;;;;;;;;;;;;;;24.92;52.13;100943.34;7388951;19;1728;-37
2023/09/13 09:14:23;;;;;;;;;;;;;;;24.93;52.47;100950.47;7388713;19;1834;-37
2023/09/13 09:16:52;;;;;;;;;;;;;;;24.95;52.01;100943.03;7391058;19;1732;-38
2023/09/13 09:19:21;;;;;;;;;;;;;;;24.96;52.00;100965.50;7384164;19;1759;-40
2023/09/13 09:21:49;;;;;;;;;;;;;;;25.04;51.83;100943.00;7372473;19;1801;-40
2023/09/13 09:24:17;;;;;;;;;;;;;;;25.13;51.73;100944.69;7390624;19;1467;-40
2023/09/13 09:26:47;;;;;;;;;;;;;;;25.07;51.61;100943.53;7392067;19;1581;-36
2023/09/13 09:29:15;;;;;;;;;;;;;;;25.15;51.43;100940.78;7391769;19;1732;-36
2023/09/13 09:31:46;;;;;;;;;;;;;;;25.16;51.24;100944.34;7396911;19;965;-36
2023/09/13 09:34:15;;;;;;;;;;;;;;;25.30;51.23;100927.41;7394613;19;1935;-36
2023/09/13 09:36:44;;;;;;;;;;;;;;;25.17;51.68;100927.09;7395510;19;1728;-36
2023/09/13 09:39:15;;;;;;;;;;;;;;;25.23;51.18;100925.56;7393911;19;1792;-36
2023/09/13 09:41:43;;;;;;;;;;;;;;;25.21;51.73;100947.38;7394239;19;1811;-36
2023/09/13 09:44:11;;;;;;;;;;;;;;;25.13;52.13;100933.88;7396245;19;1724;-36
2023/09/13 09:46:40;;;;;;;;;;;;;;;25.10;52.14;100926.09;7394337;19;1498;-36
2023/09/13 09:49:11;;;;;;;;;;;;;;;25.10;52.01;100923.38;7394638;19;1571;-36
2023/09/13 09:51:39;;;;;;;;;;;;;;;25.10;52.10;100934.19;7393070;19;2486;-40
2023/09/13 09:54:08;;;;;;;;;;;;;;;25.09;52.25;100908.16;7393195;19;1841;-36
2023/09/13 09:56:36;;;;;;;;;;;;;;;25.07;52.41;100915.59;7392189;19;2505;-36
2023/09/13 09:59:04;;;;;;;;;;;;;;;25.11;52.03;100903.41;7394730;19;1175;-36
2023/09/13 10:01:33;;;;;;;;;;;;;;;25.20;52.02;100899.66;7399711;19;1943;-36
2023/09/13 10:04:12;;;;;;;;;;;;;;;25.24;51.57;100895.63;7394183;19;1553;-37
2023/09/13 10:06:57;;;;;;;;;;;;;;;25.18;52.25;100904.41;7398527;19;1617;-44
2023/09/13 10:09:25;;;;;;;;;;;;;;;25.09;52.11;100895.47;7393449;19;1843;-44
2023/09/13 10:11:58;;;;;;;;;;;;;;;25.05;52.37;100882.44;7396545;19;1653;-43
2023/09/13 10:14:30;;;;;;;;;;;;;;;25.07;52.35;100902.06;7395083;19;1843;-43
2023/09/13 10:16:59;;;;;;;;;;;;;;;25.01;52.38;100900.91;7396495;19;1660;-44
2023/09/13 10:19:31;;;;;;;;;;;;;;;25.01;52.22;100890.09;7399074;19;992;-43
2023/09/13 10:21:59;;;;;;;;;;;;;;;25.02;52.37;100879.06;7383633;19;1051;-43
2023/09/13 10:24:31;;;;;;;;;;;;;;;25.02;52.16;100881.78;7396156;19;1965;-44
2023/09/13 10:27:00;;;;;;;;;;;;;;;25.04;52.37;100894.31;7393881;19;1856;-43
2023/09/13 10:29:32;;;;;;;;;;;;;;;25.07;52.41;100878.59;7395799;19;1882;-44
2023/09/13 10:32:03;;;;;;;;;;;;;;;25.05;52.30;100893.28;7398457;19;1626;-43
2023/09/13 10:34:37;;;;;;;;;;;;;;;25.05;52.27;100894.16;7397053;19;1876;-44
2023/09/13 10:37:08;;;;;;;;;;;;;;;25.05;52.10;100877.03;7396733;19;1295;-43
2023/09/13 10:39:39;;;;;;;;;;;;;;;25.05;52.29;100885.16;7399839;19;1720;-44
2023/09/13 10:42:10;;;;;;;;;;;;;;;25.04;52.25;100892.44;7400054;19;1804;-44
2023/09/13 10:44:39;;;;;;;;;;;;;;;25.06;52.30;100878.75;7399770;19;1803;-43
2023/09/13 10:47:07;;;;;;;;;;;;;;;25.01;52.16;100890.09;7399430;19;1897;-42
2023/09/13 10:49:39;;;;;;;;;;;;;;;25.04;52.46;100868.09;7399562;19;1815;-44
2023/09/13 10:52:08;;;;;;;;;;;;;;;25.01;52.17;100869.28;7399975;19;1808;-44
2023/09/13 10:54:37;;;;;;;;;;;;;;;25.01;52.25;100874.69;7399095;19;1849;-44
2023/09/13 10:57:05;;;;;;;;;;;;;;;25.02;52.37;100870.13;7399052;19;1607;-42
2023/09/13 10:59:34;;;;;;;;;;;;;;;25.02;52.16;100872.84;7397816;19;1771;-43
2023/09/13 11:02:04;;;;;;;;;;;;;;;25.00;52.34;100874.88;7400630;19;1513;-42
2023/09/13 11:04:33;;;;;;;;;;;;;;;24.55;52.28;100769.00;7400058;19;1724;-42
2023/09/13 11:07:04;;;;;;;;;;;;;;;25.06;52.32;100873.34;7399918;19;1844;-44
2023/09/13 11:09:32;;;;;;;;;;;;;;;25.04;52.20;100857.25;7399543;19;1699;-43
2023/09/13 11:12:01;;;;;;;;;;;;;;;25.04;52.09;100859.13;7397922;19;1715;-42
2023/09/13 11:14:31;;;;;;;;;;;;;;;25.07;52.21;100851.53;7397861;19;1841;-42
2023/09/13 11:17:05;;;;;;;;;;;;;;;25.06;52.37;100862.50;7398760;19;1476;-42
2023/09/13 11:19:33;;;;;;;;;;;;;;;25.01;52.16;100847.66;7398993;19;1479;-43
2023/09/13 11:22:06;;;;;;;;;;;;;;;25.06;52.34;100841.69;7385019;19;1806;-43
2023/09/13 11:24:43;;;;;;;;;;;;;;;25.07;52.09;100842.53;7399581;19;1330;-43
2023/09/13 11:27:12;;;;;;;;;;;;;;;25.03;52.00;100844.78;7398703;19;1867;-43
2023/09/13 11:29:44;;;;;;;;;;;;;;;25.06;52.41;100843.56;7397598;19;1812;-42
2023/09/13 11:32:20;;;;;;;;;;;;;;;25.04;52.23;100841.03;7399071;19;1799;-42
2023/09/13 11:34:48;;;;;;;;;;;;;;;25.05;52.35;100839.16;7397888;19;1931;-43
2023/09/13 11:37:19;;;;;;;;;;;;;;;25.01;52.01;100827.88;7399089;19;1425;-42
2023/09/13 11:39:54;;;;;;;;;;;;;;;25.08;52.06;100838.81;7398636;19;1724;-42
2023/09/13 11:42:27;;;;;;;;;;;;;;;25.02;52.26;100827.66;7397669;19;1888;-43
2023/09/13 11:44:56;;;;;;;;;;;;;;;24.99;52.33;100841.56;7397339;19;1811;-44
2023/09/13 11:47:24;;;;;;;;;;;;;;;24.96;52.56;100833.78;7396901;19;2134;-42
2023/09/13 11:49:55;;;;;;;;;;;;;;;24.94;52.49;100833.09;7395608;19;1621;-44
2023/09/13 11:52:26;;;;;;;;;;;;;;;24.92;52.43;100818.91;7398968;19;1678;-42
2023/09/13 11:54:56;;;;;;;;;;;;;;;24.94;52.25;100819.59;7396397;19;1853;-42
2023/09/13 11:57:24;;;;;;;;;;;;;;;24.99;52.38;100830.75;7398114;19;1811;-42
2023/09/13 11:59:56;;;;;;;;;;;;;;;25.00;52.24;100813.47;7396650;19;1324;-42
2023/09/13 12:02:24;;;;;;;;;;;;;;;24.99;52.21;100813.66;7399079;19;951;-43
2023/09/13 12:04:53;;;;;;;;;;;;;;;25.02;52.04;100808.72;7395518;19;1626;-43
2023/09/13 12:07:23;;;;;;;;;;;;;;;25.02;52.05;100819.56;7395584;19;1841;-42
2023/09/13 12:10:00;;;;;;;;;;;;;;;25.02;52.17;100813.31;7395437;19;1468;-42
2023/09/13 12:12:29;;;;;;;;;;;;;;;25.06;52.16;100808.41;7396232;19;1589;-42
2023/09/13 12:14:57;;;;;;;;;;;;;;;25.08;52.03;100814.47;7395722;19;1862;-43
2023/09/13 12:17:38;;;;;;;;;;;;;;;25.06;52.13;100798.41;7397049;19;1665;-42
2023/09/13 12:20:10;;;;;;;;;;;;;;;25.10;52.11;100798.91;7395887;19;1610;-42
2023/09/13 12:22:40;;;;;;;;;;;;;;;25.08;52.00;100812.59;7381447;19;1795;-42
2023/09/13 12:25:14;;;;;;;;;;;;;;;24.60;52.10;100717.09;7397474;19;1577;-43
2023/09/13 12:27:43;;;;;;;;;;;;;;;25.05;51.88;100790.47;7396885;19;1468;-42
2023/09/13 12:30:18;;;;;;;;;;;;;;;25.05;52.08;100796.75;7396352;19;1147;-44
2023/09/13 12:32:47;;;;;;;;;;;;;;;25.04;52.04;100786.91;7395711;19;1724;-42
2023/09/13 12:35:16;;;;;;;;;;;;;;;25.07;52.16;100799.25;7395221;19;1849;-43
2023/09/13 12:37:44;;;;;;;;;;;;;;;25.07;51.95;100797.41;7395458;19;2464;-43
2023/09/13 12:40:18;;;;;;;;;;;;;;;25.05;51.85;100785.06;7395512;19;1772;-43
2023/09/13 12:42:46;;;;;;;;;;;;;;;25.09;52.01;100792.66;7395789;19;1765;-44
2023/09/13 12:45:15;;;;;;;;;;;;;;;25.07;52.04;100783.00;7396431;19;1685;-42
2023/09/13 12:47:43;;;;;;;;;;;;;;;25.10;52.11;100788.09;7395870;19;1871;-42
2023/09/13 12:50:11;;;;;;;;;;;;;;;25.09;51.95;100791.78;7395481;19;1777;-42
2023/09/13 12:55:39;;;;;;;;;;;;;;;25.08;52.01;100780.13;7394992;19;1849;-43
2023/09/13 12:58:07;;;;;;;;;;;;;;;25.05;52.00;100777.81;7396360;19;1811;-43
2023/09/13 13:00:49;;;;;;;;;;;;;;;25.07;52.00;100778.47;7400699;19;1435;-42
2023/09/13 13:03:17;;;;;;;;;;;;;;;25.08;52.20;100772.03;7403731;19;1834;-45